Time;durP1;ratioP1;P1;durP2;ratioP2;P2;SDS_P1;SDS_P2;PMS_P1;PMS_P2;Temp;Humidity;BMP_temperature;BMP_pressure;BME280_temperature;BME280_humidity;BME280_pressure;Samples;Min_cycle;Max_cycle;Signal;HPM_P1;HPM_P2
2022/09/10 00:02:06;;;;;;;9.53;5.97;;;;;;;21.29;63.44;97034.56;4912278;29;20299;-77
2022/09/10 00:04:33;;;;;;;7.73;6.70;;;;;;;21.17;64.38;97035.63;4911412;29;20187;-75
2022/09/10 00:07:00;;;;;;;10.37;6.37;;;;;;;21.10;64.33;97023.97;4912117;29;20195;-76
2022/09/10 00:09:27;;;;;;;9.70;6.77;;;;;;;21.12;64.39;97022.03;4912424;29;20195;-77
2022/09/10 00:11:55;;;;;;;10.50;6.43;;;;;;;21.14;64.39;97028.00;4911977;29;20200;-77
2022/09/10 00:14:23;;;;;;;9.67;6.80;;;;;;;21.12;64.13;97027.31;4912019;29;20194;-77
2022/09/10 00:16:50;;;;;;;7.70;6.67;;;;;;;20.78;65.18;97027.59;4911944;29;20235;-75
2022/09/10 00:19:17;;;;;;;9.63;6.00;;;;;;;20.42;66.09;97027.28;4911928;29;20567;-78
2022/09/10 00:21:44;;;;;;;8.83;7.00;;;;;;;20.26;66.74;97025.94;4912277;29;20194;-79
2022/09/10 00:24:11;;;;;;;9.97;7.20;;;;;;;20.35;66.96;97026.97;4911711;29;20579;-75
2022/09/10 00:26:39;;;;;;;10.40;6.90;;;;;;;20.32;67.26;97021.94;4910260;29;20199;-76
2022/09/10 00:29:11;;;;;;;7.67;6.83;;;;;;;20.35;67.47;97026.97;4911530;29;20234;-75
2022/09/10 00:31:38;;;;;;;8.40;7.13;;;;;;;20.35;67.26;97015.59;4911722;29;20298;-78
2022/09/10 00:34:06;;;;;;;9.13;6.43;;;;;;;20.44;66.84;97018.31;4911671;29;20278;-76
2022/09/10 00:36:36;;;;;;;8.73;7.60;;;;;;;20.62;66.67;97002.72;4911774;29;20230;-78
2022/09/10 00:39:06;;;;;;;7.67;6.77;;;;;;;20.84;65.64;97011.25;4912818;29;20725;-78
2022/09/10 00:41:35;;;;;;;7.90;6.30;;;;;;;21.00;65.16;97000.19;4910038;29;20218;-75
2022/09/10 00:44:05;;;;;;;10.63;7.20;;;;;;;20.96;65.03;97010.16;4911625;29;20187;-75
2022/09/10 00:46:32;;;;;;;8.03;6.93;;;;;;;20.78;65.61;97003.88;4909983;29;20206;-78
2022/09/10 00:49:03;;;;;;;7.27;6.10;;;;;;;20.80;66.35;97004.59;4910100;29;20198;-77
2022/09/10 00:51:34;;;;;;;8.30;6.60;;;;;;;20.98;65.33;97000.34;4910022;29;20200;-78
2022/09/10 00:54:02;;;;;;;7.50;6.63;;;;;;;21.17;64.15;96986.41;4911139;29;20297;-78
2022/09/10 00:56:31;;;;;;;6.83;6.10;;;;;;;21.28;64.15;97007.38;4911671;29;20205;-76
2022/09/10 00:58:59;;;;;;;8.80;6.10;;;;;;;21.20;63.88;96972.13;4911158;29;20242;-77
2022/09/10 01:01:26;;;;;;;9.03;6.77;;;;;;;21.27;63.69;96991.72;4910118;29;20202;-78
2022/09/10 01:03:53;;;;;;;7.07;6.20;;;;;;;21.06;64.06;96976.81;4911806;29;20680;-76
2022/09/10 01:06:20;;;;;;;8.63;6.50;;;;;;;21.29;63.84;96992.41;4910108;29;20590;-77
2022/09/10 01:08:47;;;;;;;11.13;5.97;;;;;;;21.17;64.01;96991.69;4910137;29;20238;-78
2022/09/10 01:11:36;;;;;;;8.47;6.00;;;;;;;21.17;64.66;96990.84;4909585;29;20190;-78
2022/09/10 01:14:21;;;;;;;8.53;6.63;;;;;;;20.98;65.13;96979.28;4909918;29;20644;-78
2022/09/10 01:17:13;;;;;;;11.03;6.07;;;;;;;21.14;64.92;96985.84;4910906;29;20218;-77
2022/09/10 01:20:02;;;;;;;9.80;6.37;;;;;;;21.22;64.47;96996.53;4909480;29;20682;-78
2022/09/10 01:22:56;;;;;;;7.80;5.77;;;;;;;21.11;64.86;96989.59;4910971;29;20198;-78
2022/09/10 01:25:49;;;;;;;6.93;6.23;;;;;;;21.14;65.31;96989.34;4910660;29;20794;-79
2022/09/10 01:28:29;;;;;;;6.90;6.20;;;;;;;21.27;64.91;96983.81;4890100;29;20207;-78
2022/09/10 01:31:05;;;;;;;7.27;6.00;;;;;;;21.18;64.61;96995.16;4894430;29;20186;-76
2022/09/10 01:33:44;;;;;;;7.43;6.23;;;;;;;20.72;66.19;96977.25;4910689;29;20578;-78
2022/09/10 01:36:20;;;;;;;7.20;6.50;;;;;;;20.64;66.98;96985.00;4893309;29;20831;-77
2022/09/10 01:38:49;;;;;;;9.23;6.87;;;;;;;20.56;67.29;96967.25;4910941;29;20194;-76
2022/09/10 01:41:22;;;;;;;6.80;5.70;;;;;;;20.65;66.85;96987.47;4893399;29;20194;-78
2022/09/10 01:43:49;;;;;;;7.20;5.93;;;;;;;20.70;66.80;96980.03;4911122;29;20194;-78
2022/09/10 01:46:27;;;;;;;7.33;6.33;;;;;;;20.70;66.99;96977.41;4910585;29;20225;-77
2022/09/10 01:49:12;;;;;;;6.03;5.43;;;;;;;20.62;67.17;96971.13;4877714;29;20201;-77
2022/09/10 01:52:01;;;;;;;9.03;6.33;;;;;;;20.79;67.14;96973.13;4893429;29;20591;-77
2022/09/10 01:54:55;;;;;;;7.77;5.67;;;;;;;20.86;66.87;96969.81;4877590;29;20209;-76
2022/09/10 01:57:43;;;;;;;12.30;9.23;;;;;;;20.92;66.89;96974.53;4893646;29;20325;-76
2022/09/10 02:00:16;;;;;;;6.90;6.20;;;;;;;21.05;65.96;96977.81;4893736;29;20697;-75
2022/09/10 02:03:15;;;;;;;14.83;8.40;;;;;;;21.08;66.26;96970.59;4893331;29;20206;-75
2022/09/10 02:05:48;;;;;;;10.57;7.93;;;;;;;21.01;66.05;96965.84;4893629;29;20261;-75
2022/09/10 02:08:22;;;;;;;7.70;6.87;;;;;;;21.08;65.84;96974.88;4893242;29;20195;-75
2022/09/10 02:10:54;;;;;;;8.27;6.03;;;;;;;20.98;65.58;96981.91;4877891;29;20190;-76
2022/09/10 02:13:27;;;;;;;6.40;5.77;;;;;;;20.98;64.87;96984.53;4893555;29;20344;-75
2022/09/10 02:16:21;;;;;;;10.00;6.70;;;;;;;20.92;64.74;96985.06;4893112;29;20196;-75
2022/09/10 02:18:48;;;;;;;7.73;6.40;;;;;;;20.72;65.10;96982.53;4910180;29;20226;-75
2022/09/10 02:21:16;;;;;;;11.80;5.47;;;;;;;20.54;65.62;96976.22;4910001;29;20194;-76
2022/09/10 02:23:47;;;;;;;9.27;6.47;;;;;;;20.58;66.04;96986.38;4910249;29;20190;-75
2022/09/10 02:26:15;;;;;;;6.93;6.17;;;;;;;20.39;66.82;96983.66;4893549;29;20205;-74
2022/09/10 02:28:43;;;;;;;8.53;6.40;;;;;;;20.17;68.08;96989.84;4909865;29;20296;-75
2022/09/10 02:31:11;;;;;;;6.93;6.00;;;;;;;19.85;69.07;96981.22;4909403;29;20195;-75
2022/09/10 02:33:38;;;;;;;6.60;5.97;;;;;;;19.42;70.95;96989.22;4910045;29;20212;-75
2022/09/10 02:36:06;;;;;;;8.00;6.13;;;;;;;19.36;71.42;96986.25;4908522;29;20194;-74
2022/09/10 02:38:33;;;;;;;6.67;5.97;;;;;;;19.51;70.77;96998.13;4908480;29;20278;-75
2022/09/10 02:41:00;;;;;;;14.37;6.57;;;;;;;19.56;70.56;96990.69;4908747;29;20254;-75
2022/09/10 02:43:28;;;;;;;7.33;6.13;;;;;;;19.45;70.75;96985.50;4910378;29;20198;-75
2022/09/10 02:46:06;;;;;;;8.33;6.00;;;;;;;19.44;70.84;96983.81;4908496;29;20228;-74
2022/09/10 02:48:38;;;;;;;5.97;5.37;;;;;;;19.70;70.42;96981.69;4895598;29;20713;-75
2022/09/10 02:51:07;;;;;;;6.23;5.63;;;;;;;19.90;69.36;96989.56;4912245;29;20201;-75
2022/09/10 02:53:35;;;;;;;6.17;5.43;;;;;;;19.80;69.47;97004.44;4912090;29;20193;-75
2022/09/10 02:56:04;;;;;;;6.20;5.60;;;;;;;19.66;69.68;97001.28;4912177;29;20197;-75
2022/09/10 02:58:31;;;;;;;7.63;6.87;;;;;;;19.62;70.02;96989.38;4911868;29;20636;-75
2022/09/10 03:01:15;;;;;;;8.47;6.93;;;;;;;19.48;70.56;96978.19;4896928;29;20392;-75
2022/09/10 03:03:54;;;;;;;10.27;7.20;;;;;;;19.58;70.52;96990.59;4880992;29;20309;-75
2022/09/10 03:06:23;;;;;;;9.27;7.30;;;;;;;19.85;70.06;96990.91;4912203;29;20189;-74
2022/09/10 03:08:53;;;;;;;9.53;6.60;;;;;;;20.03;68.60;96990.19;4913125;29;20202;-75
2022/09/10 03:11:22;;;;;;;8.00;6.00;;;;;;;19.92;69.14;96992.06;4911591;29;20591;-75
2022/09/10 03:13:51;;;;;;;8.33;6.30;;;;;;;19.75;69.60;96979.50;4913346;29;20657;-76
2022/09/10 03:16:18;;;;;;;8.37;6.20;;;;;;;19.53;70.82;96964.69;4912745;29;20697;-74
2022/09/10 03:18:46;;;;;;;8.77;6.03;;;;;;;19.37;71.70;96959.84;4913126;29;20277;-74
2022/09/10 03:21:17;;;;;;;9.03;6.30;;;;;;;19.51;71.40;96961.34;4911676;29;20198;-75
2022/09/10 03:23:45;;;;;;;8.07;5.77;;;;;;;19.63;71.18;96967.38;4911447;29;20284;-74
2022/09/10 03:26:15;;;;;;;8.47;5.93;;;;;;;19.71;70.82;96978.09;4911617;29;20209;-74
2022/09/10 03:28:43;;;;;;;6.33;5.17;;;;;;;19.86;70.59;96976.81;4911212;29;20738;-74
2022/09/10 03:31:13;;;;;;;8.30;5.33;;;;;;;19.93;69.57;96984.03;4912009;29;20200;-74
2022/09/10 03:33:45;;;;;;;8.23;6.20;;;;;;;19.89;69.08;96994.94;4911341;29;20191;-75
2022/09/10 03:36:12;;;;;;;12.17;8.13;;;;;;;19.81;69.52;96995.59;4911595;29;20202;-74
2022/09/10 03:38:41;;;;;;;11.13;7.40;;;;;;;19.80;69.55;96993.09;4907340;29;20226;-75
2022/09/10 03:41:08;;;;;;;11.17;6.57;;;;;;;19.73;70.03;96986.66;4896559;29;20205;-75
2022/09/10 03:43:37;;;;;;;11.40;6.57;;;;;;;19.75;70.20;96990.00;4892788;29;20628;-75
2022/09/10 03:46:07;;;;;;;10.07;6.13;;;;;;;19.59;70.70;96994.88;4892363;29;20195;-76
2022/09/10 03:48:38;;;;;;;7.33;5.90;;;;;;;19.45;71.60;96983.69;4877137;29;20207;-78
2022/09/10 03:51:09;;;;;;;8.50;6.40;;;;;;;19.37;71.57;96983.47;4892288;29;20186;-77
2022/09/10 03:53:39;;;;;;;9.47;6.07;;;;;;;19.51;71.25;96973.66;4892229;29;20698;-75
2022/09/10 03:56:09;;;;;;;9.10;5.73;;;;;;;19.56;71.00;96968.88;4907902;29;20857;-74
2022/09/10 03:58:38;;;;;;;9.20;6.37;;;;;;;19.47;71.51;96971.25;4891747;29;20258;-75
2022/09/10 04:01:06;;;;;;;6.63;5.50;;;;;;;19.63;70.98;96983.97;4891412;29;20202;-75
2022/09/10 04:03:37;;;;;;;10.03;6.10;;;;;;;19.62;71.05;96974.41;4894845;29;20202;-75
2022/09/10 04:06:07;;;;;;;11.87;5.73;;;;;;;19.62;70.75;96963.09;4895282;29;20577;-75
2022/09/10 04:08:34;;;;;;;6.13;4.83;;;;;;;19.54;71.41;96965.53;4912052;29;20577;-76
2022/09/10 04:11:03;;;;;;;5.90;5.30;;;;;;;19.63;70.65;96978.72;4912436;29;20631;-74
2022/09/10 04:13:31;;;;;;;8.90;5.23;;;;;;;19.75;70.35;96980.34;4910443;29;20232;-73
2022/09/10 04:15:59;;;;;;;8.53;5.90;;;;;;;19.83;69.77;96979.69;4912271;29;20752;-74
2022/09/10 04:18:27;;;;;;;9.73;6.50;;;;;;;19.92;69.59;96979.75;4910377;29;20288;-74
2022/09/10 04:20:55;;;;;;;8.33;6.13;;;;;;;19.94;69.72;96969.97;4911506;29;20194;-75
2022/09/10 04:23:22;;;;;;;9.90;6.57;;;;;;;20.04;69.23;96991.03;4910596;29;20249;-75
2022/09/10 04:25:49;;;;;;;13.90;7.30;;;;;;;20.16;68.64;96976.84;4910415;29;20249;-75
2022/09/10 04:28:17;;;;;;;13.63;7.27;;;;;;;20.11;68.40;96971.16;4907283;29;20678;-75
2022/09/10 04:30:46;;;;;;;11.33;6.90;;;;;;;20.02;68.10;97001.69;4894410;29;20209;-75
2022/09/10 04:33:15;;;;;;;10.57;7.40;;;;;;;20.01;68.26;97002.63;4894284;29;20709;-76
2022/09/10 04:35:43;;;;;;;10.37;6.90;;;;;;;20.05;67.93;97003.22;4894653;29;20206;-74
2022/09/10 04:38:11;;;;;;;11.97;7.03;;;;;;;19.94;68.43;96995.41;4911024;29;20631;-75
2022/09/10 04:40:39;;;;;;;11.97;6.67;;;;;;;19.89;68.41;96987.91;4894485;29;20237;-75
2022/09/10 04:43:07;;;;;;;8.73;6.63;;;;;;;19.95;68.10;97000.53;4911166;29;20579;-75
2022/09/10 04:45:40;;;;;;;11.20;6.83;;;;;;;20.07;67.16;96999.50;4894508;29;20197;-75
2022/09/10 04:48:08;;;;;;;8.27;5.73;;;;;;;20.08;67.22;96995.91;4894551;29;20191;-75
2022/09/10 04:50:38;;;;;;;10.37;6.50;;;;;;;19.92;68.27;96986.81;4894021;29;20217;-75
2022/09/10 04:53:21;;;;;;;10.40;6.10;;;;;;;19.84;67.90;96990.09;4894703;29;20205;-75
2022/09/10 04:55:50;;;;;;;6.47;5.73;;;;;;;19.77;68.36;96985.44;4894104;29;20200;-75
2022/09/10 04:58:17;;;;;;;10.13;7.00;;;;;;;19.70;68.53;96986.94;4894104;29;20214;-74
2022/09/10 05:00:45;;;;;;;7.37;6.67;;;;;;;19.67;68.65;96987.19;4894114;29;20285;-75
2022/09/10 05:03:13;;;;;;;9.77;7.20;;;;;;;20.07;67.61;96985.53;4911107;29;20206;-75
2022/09/10 05:05:43;;;;;;;11.00;8.07;;;;;;;20.47;66.54;96994.34;4894630;29;20190;-76
2022/09/10 05:08:11;;;;;;;8.30;6.97;;;;;;;20.56;66.07;97004.09;4893699;29;20202;-75
2022/09/10 05:10:40;;;;;;;8.87;7.37;;;;;;;20.79;65.39;96995.00;4894443;29;20187;-75
2022/09/10 05:13:07;;;;;;;8.00;7.20;;;;;;;20.97;65.42;96989.94;4910908;29;20198;-77
2022/09/10 05:15:40;;;;;;;12.73;7.33;;;;;;;20.79;65.68;96984.47;4910765;29;20191;-76
2022/09/10 05:18:07;;;;;;;9.33;7.23;;;;;;;20.63;65.40;96944.69;4893723;29;20237;-75
2022/09/10 05:20:36;;;;;;;10.93;7.37;;;;;;;20.99;65.43;96980.13;4893223;29;20214;-76
2022/09/10 05:23:04;;;;;;;10.63;7.50;;;;;;;21.01;65.83;96973.75;4893990;29;20198;-77
2022/09/10 05:25:33;;;;;;;11.83;6.80;;;;;;;21.53;64.20;96974.38;4893638;29;20191;-77
2022/09/10 05:28:00;;;;;;;12.10;6.90;;;;;;;21.70;63.48;96976.31;4908490;29;20248;-77
2022/09/10 05:30:31;;;;;;;11.53;7.77;;;;;;;22.08;62.86;96980.72;4910579;29;20362;-77
2022/09/10 05:33:00;;;;;;;10.33;6.93;;;;;;;22.23;61.35;96958.19;4893056;29;20708;-77
2022/09/10 05:35:29;;;;;;;15.17;7.90;;;;;;;22.50;61.18;96987.28;4893945;29;20199;-76
2022/09/10 05:37:59;;;;;;;12.33;7.57;;;;;;;22.60;60.71;96981.03;4906606;29;20265;-75
2022/09/10 05:40:29;;;;;;;13.43;7.60;;;;;;;22.75;60.14;96981.34;4876770;29;20202;-76
2022/09/10 05:42:56;;;;;;;10.13;7.37;;;;;;;22.77;59.76;96978.59;4875690;29;20198;-76
2022/09/10 05:45:24;;;;;;;12.37;7.53;;;;;;;22.75;59.87;96983.19;4891974;29;20265;-77
2022/09/10 05:47:51;;;;;;;8.93;7.47;;;;;;;22.78;60.41;96969.66;4890522;29;20203;-77
2022/09/10 05:50:22;;;;;;;15.90;8.33;;;;;;;22.71;60.37;96958.84;4890437;29;20192;-77
2022/09/10 05:52:51;;;;;;;10.80;7.43;;;;;;;22.62;61.66;96962.38;4891210;29;20190;-77
2022/09/10 05:55:18;;;;;;;11.20;9.20;;;;;;;23.02;60.63;96968.13;4890009;29;20281;-78
2022/09/10 05:57:47;;;;;;;10.53;7.33;;;;;;;23.15;59.66;96975.72;4875306;29;20205;-78
2022/09/10 06:00:17;;;;;;;10.40;7.20;;;;;;;23.21;59.09;96980.41;4889961;29;20198;-76
2022/09/10 06:02:52;;;;;;;11.83;7.97;;;;;;;23.40;58.51;96977.66;4889809;29;20196;-75
2022/09/10 06:05:33;;;;;;;9.43;7.63;;;;;;;23.43;58.21;96974.72;4889665;29;20191;-76
2022/09/10 06:08:01;;;;;;;16.50;11.47;;;;;;;23.62;57.88;96963.97;4889680;29;20217;-77
2022/09/10 06:10:36;;;;;;;9.00;6.53;;;;;;;23.41;58.28;96968.75;4890257;29;20651;-75
2022/09/10 06:13:03;;;;;;;13.27;6.83;;;;;;;23.26;58.30;96959.66;4889666;29;20265;-76
2022/09/10 06:15:31;;;;;;;9.23;7.27;;;;;;;23.28;58.15;96978.84;4890112;29;20203;-77
2022/09/10 06:18:00;;;;;;;12.23;7.03;;;;;;;23.32;59.19;96978.41;4890994;29;20245;-76
2022/09/10 06:20:28;;;;;;;7.53;5.77;;;;;;;23.29;58.72;96969.91;4889660;29;20212;-76
2022/09/10 06:22:55;;;;;;;8.23;5.47;;;;;;;23.74;58.66;96972.53;4890254;29;20202;-75
2022/09/10 06:25:22;;;;;;;9.23;6.37;;;;;;;24.15;56.82;96980.63;4893137;29;20194;-75
2022/09/10 06:27:50;;;;;;;7.67;6.63;;;;;;;24.45;55.89;96970.56;4878198;29;20204;-77
2022/09/10 06:30:20;;;;;;;8.33;6.67;;;;;;;24.57;54.88;96978.06;4896349;29;20325;-78
2022/09/10 06:32:47;;;;;;;23.90;12.47;;;;;;;24.57;55.11;96970.13;4881000;29;20200;-76
2022/09/10 06:35:15;;;;;;;8.60;6.93;;;;;;;24.55;55.86;96987.16;4880824;29;20208;-76
2022/09/10 06:37:43;;;;;;;15.00;7.80;;;;;;;24.69;54.64;96994.53;4913264;29;20247;-76
2022/09/10 06:40:12;;;;;;;8.53;6.20;;;;;;;25.03;53.83;96990.06;4896341;29;20220;-79
2022/09/10 06:42:41;;;;;;;9.90;6.10;;;;;;;25.02;53.68;96980.44;4895908;29;20189;-77
2022/09/10 06:45:10;;;;;;;7.43;5.97;;;;;;;24.94;53.50;96967.16;4913304;29;20232;-76
2022/09/10 06:47:48;;;;;;;7.77;5.90;;;;;;;24.80;53.35;96986.31;4880207;29;20255;-77
2022/09/10 06:50:58;;;;;;;6.57;5.23;;;;;;;24.50;53.66;96978.88;4895834;29;20219;-75
2022/09/10 06:53:32;;;;;;;8.33;5.77;;;;;;;24.43;53.78;96972.53;4895946;29;20192;-74
2022/09/10 06:56:02;;;;;;;9.13;5.67;;;;;;;24.07;54.80;96953.28;4895527;29;20621;-78
2022/09/10 06:58:34;;;;;;;14.97;6.43;;;;;;;24.32;55.96;96964.88;4880276;29;20223;-76
2022/09/10 07:01:16;;;;;;;9.13;5.80;;;;;;;24.30;55.24;96956.25;4879757;29;20201;-76
2022/09/10 07:03:54;;;;;;;8.63;7.30;;;;;;;24.44;54.02;96969.72;4895795;29;20201;-76
2022/09/10 07:06:23;;;;;;;6.87;6.10;;;;;;;24.47;54.38;96963.28;4880899;29;20939;-78
2022/09/10 07:08:56;;;;;;;8.00;5.40;;;;;;;24.31;54.54;96973.78;4879910;29;20208;-80
2022/09/10 07:11:29;;;;;;;8.63;6.40;;;;;;;24.42;53.89;96986.75;4904764;29;20708;-76
2022/09/10 07:13:59;;;;;;;8.93;7.43;;;;;;;24.23;55.39;96998.38;4914873;29;20255;-76
2022/09/10 07:16:29;;;;;;;8.57;6.97;;;;;;;24.33;54.95;96987.69;4899071;29;20279;-76
2022/09/10 07:18:59;;;;;;;11.27;7.43;;;;;;;24.42;55.96;96979.63;4914779;29;20252;-76
2022/09/10 07:21:39;;;;;;;7.70;6.37;;;;;;;24.60;55.32;96980.41;4916404;29;20197;-78
2022/09/10 07:24:13;;;;;;;11.70;7.37;;;;;;;24.51;55.58;96969.91;4914632;29;20210;-75
2022/09/10 07:26:48;;;;;;;9.90;7.00;;;;;;;24.69;57.73;96971.50;4914401;29;20291;-78
2022/09/10 07:29:18;;;;;;;7.97;6.87;;;;;;;24.83;55.43;96967.47;4914589;29;20325;-77
2022/09/10 07:31:47;;;;;;;13.63;10.90;;;;;;;24.47;56.01;96972.06;4914549;29;20635;-78
2022/09/10 07:34:19;;;;;;;9.73;7.00;;;;;;;24.18;55.90;96959.16;4913530;29;20192;-78
2022/09/10 07:36:46;;;;;;;13.33;8.03;;;;;;;24.39;56.53;96972.00;4931854;29;20213;-77
2022/09/10 07:39:14;;;;;;;9.87;7.00;;;;;;;24.70;54.73;96959.09;4898785;29;20226;-78
2022/09/10 07:41:41;;;;;;;14.83;9.23;;;;;;;25.18;53.37;96983.16;4914630;29;20206;-76
2022/09/10 07:44:12;;;;;;;9.43;6.90;;;;;;;25.19;52.50;96968.06;4914292;29;20206;-77
2022/09/10 07:46:41;;;;;;;8.77;6.33;;;;;;;24.98;53.47;96966.69;4914912;29;20200;-75
2022/09/10 07:49:12;;;;;;;15.47;10.37;;;;;;;25.28;53.56;96970.59;4914473;29;20196;-79
2022/09/10 07:51:42;;;;;;;15.67;8.17;;;;;;;25.32;53.02;96974.56;4914308;29;20194;-77
2022/09/10 07:54:10;;;;;;;10.53;6.97;;;;;;;24.81;53.88;96978.19;4914722;29;20204;-77
2022/09/10 07:56:41;;;;;;;10.10;9.00;;;;;;;25.20;53.97;96957.31;4898131;29;20219;-75
2022/09/10 07:59:12;;;;;;;14.40;7.17;;;;;;;25.34;52.46;96966.44;4913779;29;20353;-78
2022/09/10 08:01:45;;;;;;;12.27;7.60;;;;;;;25.95;52.15;96961.53;4897262;29;20213;-75
2022/09/10 08:04:16;;;;;;;10.20;9.17;;;;;;;26.30;51.85;96950.56;4913493;29;20201;-78
2022/09/10 08:06:43;;;;;;;12.60;8.20;;;;;;;26.30;50.72;96952.38;4913652;29;20208;-76
2022/09/10 08:09:10;;;;;;;10.33;6.83;;;;;;;26.32;50.43;96959.19;4930539;29;20587;-78
2022/09/10 08:11:45;;;;;;;13.50;7.07;;;;;;;26.44;51.22;96947.19;4928540;29;20189;-76
2022/09/10 08:14:15;;;;;;;10.73;7.20;;;;;;;26.58;50.26;96956.31;4908068;29;20618;-75
2022/09/10 08:16:46;;;;;;;10.03;6.80;;;;;;;26.65;49.37;96951.94;4912905;29;20205;-74
2022/09/10 08:19:13;;;;;;;15.67;13.03;;;;;;;26.59;48.86;96952.63;4912338;29;20233;-75
2022/09/10 08:21:42;;;;;;;11.70;8.30;;;;;;;26.50;48.91;96951.03;4912703;29;20665;-74
2022/09/10 08:24:12;;;;;;;11.50;5.10;;;;;;;25.71;49.57;96962.38;4911071;29;20221;-75
2022/09/10 08:26:42;;;;;;;8.13;6.60;;;;;;;25.42;50.95;96956.72;4929941;29;20209;-76
2022/09/10 08:29:09;;;;;;;9.63;5.60;;;;;;;25.70;51.69;96958.06;4912702;29;20249;-77
2022/09/10 08:31:37;;;;;;;7.03;6.33;;;;;;;25.78;51.93;96959.91;4896840;29;20281;-78
2022/09/10 08:34:11;;;;;;;12.00;6.97;;;;;;;26.14;50.45;96947.09;4911860;29;20252;-78
2022/09/10 08:36:41;;;;;;;9.67;7.03;;;;;;;25.91;50.56;96956.72;4897854;29;20682;-76
2022/09/10 08:39:08;;;;;;;81.10;69.23;;;;;;;26.35;50.66;96963.34;4896930;29;20229;-74
2022/09/10 08:41:45;;;;;;;13.53;8.20;;;;;;;26.82;49.03;96966.03;4913190;29;20273;-77
2022/09/10 08:44:30;;;;;;;5.43;4.93;;;;;;;27.09;47.36;96961.09;4894695;29;20697;-78
2022/09/10 08:47:18;;;;;;;5.97;5.37;;;;;;;26.47;49.28;96954.00;4893559;29;20182;-75
2022/09/10 08:50:03;;;;;;;8.90;5.90;;;;;;;26.40;50.06;96958.34;4893928;29;20681;-75
2022/09/10 08:52:42;;;;;;;10.30;6.90;;;;;;;26.43;49.38;96956.19;4893671;29;20660;-77
2022/09/10 08:55:31;;;;;;;8.97;5.63;;;;;;;26.43;48.17;96947.38;4893315;29;20194;-78
2022/09/10 08:58:10;;;;;;;10.47;8.40;;;;;;;26.05;46.90;96943.59;4893827;29;20194;-77
2022/09/10 09:00:43;;;;;;;7.17;4.90;;;;;;;26.18;47.85;96927.19;4893364;29;20312;-75
2022/09/10 09:03:37;;;;;;;7.80;5.40;;;;;;;25.82;48.01;96881.63;4881813;29;20205;-75
2022/09/10 09:06:20;;;;;;;5.90;4.90;;;;;;;26.07;48.17;96914.25;4929717;29;20190;-78
2022/09/10 09:08:49;;;;;;;10.03;5.00;;;;;;;25.37;51.12;96905.94;4912658;29;20186;-80
2022/09/10 09:11:28;;;;;;;8.97;7.97;;;;;;;25.92;49.30;96924.72;4929497;29;20237;-74
2022/09/10 09:14:28;;;;;;;14.10;10.20;;;;;;;26.37;48.08;96924.16;4928897;29;20197;-75
2022/09/10 09:17:12;;;;;;;13.00;8.63;;;;;;;26.83;46.28;96927.84;4928098;29;20198;-76
2022/09/10 09:19:43;;;;;;;8.20;5.63;;;;;;;26.68;45.85;96909.09;4925942;29;20229;-77
2022/09/10 09:22:32;;;;;;;8.57;7.20;;;;;;;27.12;46.28;96917.38;4904588;29;20562;-79
2022/09/10 09:25:26;;;;;;;10.47;5.50;;;;;;;27.51;43.88;96909.34;4876730;29;20613;-76
2022/09/10 09:27:55;;;;;;;12.30;6.97;;;;;;;27.55;44.09;96902.66;4892850;29;20211;-75
2022/09/10 09:30:36;;;;;;;8.57;5.70;;;;;;;27.11;44.49;96891.78;4874346;29;20238;-78
2022/09/10 09:33:15;;;;;;;14.23;7.73;;;;;;;27.48;43.93;96912.34;4908249;29;20309;-76
2022/09/10 09:36:04;;;;;;;22.60;20.17;;;;;;;27.56;44.96;96909.59;4907754;29;20580;-76
2022/09/10 09:39:20;;;;;;;10.27;7.10;;;;;;;27.71;43.99;96906.00;4920872;29;20203;-75
2022/09/10 09:42:44;;;;;;;6.70;6.00;;;;;;;28.03;42.65;96905.72;4889529;29;20196;-74
2022/09/10 09:45:37;;;;;;;8.13;5.70;;;;;;;28.01;42.70;96888.28;4874375;29;20203;-77
2022/09/10 09:48:06;;;;;;;9.17;6.53;;;;;;;28.14;44.44;96901.78;4900002;29;21087;-76
2022/09/10 09:50:37;;;;;;;9.50;5.50;;;;;;;28.19;44.18;96902.09;4893489;29;20211;-76
2022/09/10 09:53:04;;;;;;;10.13;6.97;;;;;;;27.96;43.90;96907.47;4910502;29;20187;-74
2022/09/10 09:55:38;;;;;;;9.57;5.73;;;;;;;27.99;43.12;96892.94;4909262;29;20222;-77
2022/09/10 09:58:20;;;;;;;7.10;5.30;;;;;;;28.10;43.16;96896.00;4909810;29;20199;-77
2022/09/10 10:00:53;;;;;;;7.63;5.20;;;;;;;27.89;43.17;96895.84;4910044;29;20230;-77
2022/09/10 10:03:27;;;;;;;10.77;5.80;;;;;;;27.99;43.16;96879.63;4893957;29;20580;-76
2022/09/10 10:06:02;;;;;;;7.10;6.40;;;;;;;27.99;44.79;96876.97;4909215;29;20191;-78
2022/09/10 10:08:32;;;;;;;7.10;5.40;;;;;;;27.70;44.90;96868.94;4909066;29;20228;-77
2022/09/10 10:11:00;;;;;;;7.00;5.40;;;;;;;27.38;45.88;96865.53;4911316;29;20603;-74
2022/09/10 10:13:42;;;;;;;5.60;5.03;;;;;;;27.28;45.64;96862.25;4908952;29;20214;-75
2022/09/10 10:16:20;;;;;;;7.73;5.17;;;;;;;26.98;46.19;96841.84;4909261;29;20212;-77
2022/09/10 10:18:49;;;;;;;8.57;5.07;;;;;;;27.35;45.67;96857.06;4909409;29;20199;-75
2022/09/10 10:21:18;;;;;;;12.43;6.97;;;;;;;27.73;45.08;96849.94;4908457;29;20683;-74
2022/09/10 10:23:47;;;;;;;5.97;4.60;;;;;;;27.82;43.49;96846.19;4909457;29;20201;-75
2022/09/10 10:26:19;;;;;;;6.33;4.80;;;;;;;27.56;44.40;96840.44;4909704;29;20218;-74
2022/09/10 10:28:52;;;;;;;8.07;4.93;;;;;;;27.21;45.60;96837.38;4907884;29;20618;-78
2022/09/10 10:31:19;;;;;;;7.40;4.73;;;;;;;27.56;45.48;96832.44;4909557;29;20199;-78
2022/09/10 10:34:08;;;;;;;7.47;4.50;;;;;;;27.48;46.75;96827.19;4908238;29;20281;-76
2022/09/10 10:37:02;;;;;;;5.20;4.27;;;;;;;27.35;47.80;96831.31;4908174;29;20191;-76
2022/09/10 10:39:59;;;;;;;9.87;4.80;;;;;;;27.81;46.04;96841.84;4909408;29;20634;-76
2022/09/10 10:42:35;;;;;;;5.40;4.40;;;;;;;27.78;45.86;96834.25;4909886;29;20191;-75
2022/09/10 10:45:17;;;;;;;11.80;5.30;;;;;;;27.46;46.94;96818.56;4908130;29;20202;-77
2022/09/10 10:48:02;;;;;;;14.87;5.70;;;;;;;27.31;47.35;96807.84;4908285;29;20281;-77
2022/09/10 10:50:53;;;;;;;9.63;5.30;;;;;;;27.55;46.45;96775.75;4909938;29;20659;-76
2022/09/10 10:53:42;;;;;;;6.77;5.27;;;;;;;27.94;46.31;96810.13;4882022;29;20647;-75
2022/09/10 10:56:34;;;;;;;9.30;5.63;;;;;;;28.23;46.29;96820.81;4908013;29;20210;-75
2022/09/10 10:59:38;;;;;;;10.30;4.83;;;;;;;28.30;46.14;96820.88;4909600;29;20286;-76
2022/09/10 11:02:24;;;;;;;4.83;4.33;;;;;;;28.14;45.89;96813.91;4909386;29;20194;-75
2022/09/10 11:04:53;;;;;;;8.87;4.93;;;;;;;28.32;45.68;96810.84;4907767;29;20199;-77
2022/09/10 11:07:38;;;;;;;5.23;4.57;;;;;;;28.33;45.91;96797.38;4909391;29;20266;-78
2022/09/10 11:10:18;;;;;;;5.13;4.63;;;;;;;28.35;45.80;96802.50;4911293;29;20201;-74
2022/09/10 11:13:08;;;;;;;8.07;4.60;;;;;;;28.34;45.41;96791.00;4911367;29;20198;-76
2022/09/10 11:15:46;;;;;;;9.30;4.63;;;;;;;28.41;45.98;96789.25;4911421;29;20280;-75
2022/09/10 11:18:26;;;;;;;9.37;4.83;;;;;;;28.48;45.63;96790.16;4912680;29;20229;-73
2022/09/10 11:21:19;;;;;;;6.10;4.60;;;;;;;28.49;45.74;96794.47;4880520;29;20320;-76
2022/09/10 11:24:21;;;;;;;5.77;5.20;;;;;;;28.37;45.89;96787.97;5208701;23;20229;-82
2022/09/10 11:27:01;;;;;;;8.77;4.70;;;;;;;28.24;46.43;96771.81;4930848;29;20202;-81
2022/09/10 11:30:15;;;;;;;7.47;4.60;;;;;;;28.23;47.16;96783.50;4934281;29;20197;-80
2022/09/10 11:33:16;;;;;;;6.07;5.27;;;;;;;28.46;46.39;96773.53;4922846;29;20210;-82
2022/09/10 11:35:48;;;;;;;8.07;5.27;;;;;;;28.52;46.13;96756.78;4926101;29;20708;-83
2022/09/10 11:39:02;;;;;;;7.13;5.00;;;;;;;28.56;46.42;96773.28;4925042;29;20211;-79
2022/09/10 11:41:31;;;;;;;16.93;7.03;;;;;;;28.73;46.34;96762.16;4927780;29;20700;-80
2022/09/10 11:44:24;;;;;;;5.50;4.97;;;;;;;28.94;45.47;96764.84;4927866;29;20205;-79
2022/09/10 11:47:13;;;;;;;8.57;4.90;;;;;;;28.59;45.77;96749.72;4905238;29;20202;-81
2022/09/10 11:49:52;;;;;;;6.70;5.47;;;;;;;28.71;46.03;96748.22;4926096;29;20217;-81
2022/09/10 11:52:21;;;;;;;5.80;5.17;;;;;;;28.84;45.05;96748.34;4922521;29;20289;-79
2022/09/10 11:54:48;;;;;;;6.37;5.17;;;;;;;28.90;45.39;96747.59;4922219;29;20260;-80
2022/09/10 11:58:00;;;;;;;10.10;5.33;;;;;;;28.90;45.44;96742.25;4925816;29;20187;-81
2022/09/10 12:01:22;;;;;;;10.67;5.17;;;;;;;28.89;45.51;96724.59;4921715;29;20238;-82
2022/09/10 12:04:38;;;;;;;9.20;5.73;;;;;;;29.01;46.36;96727.59;4923021;29;20640;-80